Time;durP1;ratioP1;P1;durP2;ratioP2;P2;SDS_P1;SDS_P2;PMS_P1;PMS_P2;Temp;Humidity;BMP_temperature;BMP_pressure;BME280_temperature;BME280_humidity;BME280_pressure;Samples;Min_cycle;Max_cycle;Signal;HPM_P1;HPM_P2
2023/07/12 00:01:35;;;;;;;11.13;5.10;;;;;;;22.47;58.76;99347.41;10208510;29;20059;-78
2023/07/12 00:06:40;;;;;;;8.18;4.55;;;;;;;22.37;58.89;99341.59;10208117;29;20392;-80
2023/07/12 00:11:43;;;;;;;7.60;5.03;;;;;;;21.63;61.14;99355.88;10196966;29;20063;-76
2023/07/12 00:16:47;;;;;;;7.97;4.95;;;;;;;21.54;61.75;99368.16;10202832;29;20040;-78
2023/07/12 00:21:50;;;;;;;5.38;4.40;;;;;;;20.91;64.88;99400.81;10199183;29;20047;-78
2023/07/12 00:26:52;;;;;;;6.25;4.85;;;;;;;21.26;63.95;99390.41;10197148;29;20043;-77
2023/07/12 00:31:58;;;;;;;6.93;4.85;;;;;;;21.55;63.23;99421.72;10217485;28;20056;-76
2023/07/12 00:37:01;;;;;;;12.93;5.28;;;;;;;20.65;67.01;99432.59;10195541;29;20071;-76
2023/07/12 00:42:11;;;;;;;8.15;5.28;;;;;;;21.11;66.80;99471.72;10200852;29;20047;-78
2023/07/12 00:47:16;;;;;;;8.55;5.03;;;;;;;20.96;67.14;99502.00;10198681;29;20662;-77
2023/07/12 00:52:20;;;;;;;8.00;5.65;;;;;;;21.18;67.14;99503.44;10196062;29;20560;-78
2023/07/12 00:57:25;;;;;;;14.02;6.10;;;;;;;20.26;71.14;99505.16;10199255;29;20044;-79
2023/07/12 01:02:30;;;;;;;9.73;5.55;;;;;;;20.36;70.16;99525.78;10210444;28;20052;-77
2023/07/12 01:07:34;;;;;;;7.35;4.93;;;;;;;20.70;70.27;99555.56;10205559;29;20491;-77
2023/07/12 01:12:37;;;;;;;5.50;4.47;;;;;;;20.46;73.04;99572.53;10221047;28;20052;-77
2023/07/12 01:17:41;;;;;;;7.90;4.75;;;;;;;20.39;78.31;99520.72;10200255;29;20598;-77
2023/07/12 01:22:45;;;;;;;6.97;5.13;;;;;;;19.42;85.50;99475.66;10208365;29;20545;-78
2023/07/12 01:27:48;;;;;;;9.70;5.00;;;;;;;19.22;87.86;99489.16;10202214;29;20047;-79
2023/07/12 01:32:53;;;;;;;7.80;4.75;;;;;;;19.06;88.59;99501.25;10218673;28;20063;-79
2023/07/12 01:37:57;;;;;;;6.43;4.75;;;;;;;18.96;88.56;99534.25;10214520;28;20044;-79
2023/07/12 01:43:01;;;;;;;7.95;3.90;;;;;;;18.41;88.01;99565.81;10207079;29;20511;-79
2023/07/12 01:48:05;;;;;;;7.72;3.50;;;;;;;18.61;89.62;99595.06;10204735;29;20064;-79
2023/07/12 01:53:10;;;;;;;7.25;3.40;;;;;;;18.91;88.24;99606.63;10200312;29;20074;-79
2023/07/12 01:58:13;;;;;;;3.83;3.50;;;;;;;18.66;86.46;99636.09;10206749;29;20036;-78
2023/07/12 02:03:16;;;;;;;4.10;2.63;;;;;;;18.70;85.34;99640.94;10223196;29;20102;-78
2023/07/12 02:08:21;;;;;;;4.35;2.40;;;;;;;18.83;86.03;99599.44;10224494;29;20059;-78
2023/07/12 02:13:24;;;;;;;3.10;2.05;;;;;;;18.84;83.66;99616.59;10226838;28;20419;-78
2023/07/12 02:18:27;;;;;;;4.32;2.00;;;;;;;18.93;83.63;99599.13;10204447;29;20585;-78
2023/07/12 02:23:32;;;;;;;2.53;2.13;;;;;;;18.87;82.22;99605.31;10206293;29;20044;-78
2023/07/12 02:28:34;;;;;;;3.60;1.95;;;;;;;18.88;82.15;99601.59;10203768;29;20046;-78
2023/07/12 02:33:42;;;;;;;2.80;1.70;;;;;;;18.91;80.32;99598.47;10204425;29;20459;-77
2023/07/12 02:38:47;;;;;;;4.85;1.65;;;;;;;18.92;82.33;99559.31;10205079;29;20048;-78
2023/07/12 02:43:50;;;;;;;3.75;1.52;;;;;;;19.07;82.16;99559.22;10201789;29;20111;-77
2023/07/12 02:48:53;;;;;;;5.07;1.58;;;;;;;19.07;82.07;99540.19;10188914;29;20055;-77
2023/07/12 02:53:57;;;;;;;1.60;1.50;;;;;;;18.75;83.28;99548.72;10203265;29;20047;-77
2023/07/12 02:59:00;;;;;;;2.90;1.58;;;;;;;18.76;79.83;99538.69;10200410;29;20044;-77
2023/07/12 03:04:03;;;;;;;1.60;1.50;;;;;;;18.67;81.37;99527.09;10197759;29;20039;-77
2023/07/12 03:09:07;;;;;;;1.90;1.75;;;;;;;18.17;82.11;99583.34;10198238;29;20055;-77
2023/07/12 03:14:10;;;;;;;5.97;2.60;;;;;;;17.76;86.29;99616.50;10187880;29;20099;-77
2023/07/12 03:19:14;;;;;;;2.10;2.00;;;;;;;18.27;83.74;99602.06;10200216;29;20551;-79
2023/07/12 03:24:18;;;;;;;4.25;2.20;;;;;;;17.89;84.82;99600.34;10208390;29;20027;-78
2023/07/12 03:29:21;;;;;;;2.08;1.88;;;;;;;17.85;83.49;99590.94;10210044;29;20492;-78
2023/07/12 03:34:24;;;;;;;2.00;1.80;;;;;;;17.68;84.12;99635.59;10210770;29;20054;-78
2023/07/12 03:39:28;;;;;;;3.47;2.30;;;;;;;17.39;86.07;99640.03;10209446;29;20510;-79
2023/07/12 03:44:31;;;;;;;2.17;1.83;;;;;;;17.54;84.58;99648.16;10211866;29;20035;-78
2023/07/12 03:49:34;;;;;;;4.32;1.67;;;;;;;17.23;84.16;99632.06;10208625;29;20567;-77
2023/07/12 03:54:38;;;;;;;3.75;1.80;;;;;;;17.08;83.49;99655.59;10201509;29;20048;-77
2023/07/12 03:59:41;;;;;;;3.22;1.17;;;;;;;16.56;84.56;99697.88;10207984;29;20479;-77
2023/07/12 04:04:44;;;;;;;2.35;1.73;;;;;;;16.70;84.49;99693.53;10193123;29;20423;-77
2023/07/12 04:09:48;;;;;;;1.77;1.58;;;;;;;16.86;84.08;99698.84;10200948;29;20123;-77
2023/07/12 04:14:51;;;;;;;5.75;1.70;;;;;;;16.93;82.66;99709.81;10204657;29;20055;-77
2023/07/12 04:19:54;;;;;;;2.80;1.80;;;;;;;17.03;81.46;99734.81;10219068;28;20055;-77
2023/07/12 04:24:58;;;;;;;2.70;1.65;;;;;;;16.67;81.60;99765.22;10200351;29;20127;-77
2023/07/12 04:30:01;;;;;;;5.03;2.20;;;;;;;17.30;79.54;99760.56;10191443;29;20036;-78
2023/07/12 04:35:04;;;;;;;3.65;2.25;;;;;;;16.96;83.14;99737.41;10203870;29;20131;-77
2023/07/12 04:40:10;;;;;;;6.47;2.25;;;;;;;16.21;86.98;99766.97;10201521;29;20044;-78
2023/07/12 04:45:14;;;;;;;4.50;2.05;;;;;;;15.98;88.43;99765.03;10205319;29;20046;-77
2023/07/12 04:50:17;;;;;;;4.03;2.58;;;;;;;16.40;87.22;99736.78;10200191;29;20509;-78
2023/07/12 04:55:24;;;;;;;5.45;2.22;;;;;;;16.79;85.46;99725.00;10200892;29;20040;-77
2023/07/12 05:00:27;;;;;;;4.50;1.88;;;;;;;17.27;84.14;99728.34;10210374;29;20120;-78
2023/07/12 05:05:30;;;;;;;3.80;1.70;;;;;;;17.10;82.30;99730.34;10216581;29;20055;-78
2023/07/12 06:05:24;;;;;;;5.72;1.45;;;;;;;17.73;72.04;99787.16;10156396;29;20051;-80
2023/07/12 06:24:51;;;;;;;3.50;1.20;;;;;;;17.51;69.68;99789.72;10078930;29;20065;-80
2023/07/12 06:29:53;;;;;;;1.55;1.08;;;;;;;17.77;68.61;99794.75;10087250;29;20029;-77
2023/07/12 06:34:56;;;;;;;3.78;1.00;;;;;;;17.70;69.15;99805.50;10088972;29;20478;-79
2023/07/12 06:40:01;;;;;;;2.80;1.10;;;;;;;18.13;66.69;99810.34;10083768;29;20057;-78
2023/07/12 06:45:04;;;;;;;2.55;0.90;;;;;;;18.17;66.92;99811.66;10108515;29;20043;-79
2023/07/12 06:50:08;;;;;;;1.88;0.90;;;;;;;17.83;66.97;99829.31;10224521;29;20048;-79
2023/07/12 06:55:12;;;;;;;2.80;1.00;;;;;;;17.76;66.50;99819.38;10227366;29;20071;-79
2023/07/12 07:00:16;;;;;;;2.03;0.90;;;;;;;17.87;66.85;99830.63;10220521;29;20100;-77
2023/07/12 07:05:19;;;;;;;2.10;1.10;;;;;;;17.77;67.32;99832.78;10235669;29;20648;-78
2023/07/12 07:10:23;;;;;;;2.65;1.48;;;;;;;18.18;66.07;99832.34;10236401;29;20104;-77
2023/07/12 07:15:26;;;;;;;2.03;1.60;;;;;;;17.77;67.76;99837.34;10226575;28;20099;-77
2023/07/12 07:20:29;;;;;;;2.97;2.60;;;;;;;17.54;67.10;99859.94;10220299;28;20475;-77
2023/07/12 07:25:33;;;;;;;1.85;1.70;;;;;;;17.95;65.19;99847.88;10205084;29;20044;-77
2023/07/12 07:30:37;;;;;;;3.65;1.52;;;;;;;18.01;65.61;99853.44;10212250;29;20105;-76
2023/07/12 07:35:40;;;;;;;3.88;1.65;;;;;;;18.21;63.88;99861.03;10215063;29;20051;-78
2023/07/12 07:40:44;;;;;;;2.03;1.42;;;;;;;18.35;64.15;99873.81;10221408;29;20043;-77
2023/07/12 07:45:47;;;;;;;6.05;1.80;;;;;;;18.50;63.94;99879.22;10221343;29;20044;-77
2023/07/12 07:50:53;;;;;;;5.57;2.28;;;;;;;17.80;64.79;99873.16;10215979;29;20036;-77
2023/07/12 07:55:58;;;;;;;3.30;1.73;;;;;;;18.31;64.74;99867.03;10222890;29;20735;-77
2023/07/12 08:01:01;;;;;;;2.85;1.58;;;;;;;17.87;66.76;99867.81;10228574;29;20046;-78
2023/07/12 08:06:05;;;;;;;5.32;1.95;;;;;;;17.36;68.46;99884.72;10227868;29;20044;-77
2023/07/12 08:11:10;;;;;;;3.17;2.15;;;;;;;17.29;70.26;99870.16;10213562;29;20061;-78
2023/07/12 08:16:14;;;;;;;5.47;2.47;;;;;;;18.77;66.10;99875.81;10215946;29;20759;-77
2023/07/12 08:21:17;;;;;;;6.40;2.30;;;;;;;19.13;63.98;99869.56;10221411;29;20104;-78
2023/07/12 08:26:21;;;;;;;3.38;2.00;;;;;;;19.81;61.73;99880.94;10218708;29;20051;-77
2023/07/12 08:31:24;;;;;;;2.60;2.03;;;;;;;20.04;60.67;99867.06;10219221;29;20522;-76
2023/07/12 08:36:27;;;;;;;3.92;2.20;;;;;;;20.27;60.02;99882.34;10212506;29;20054;-77
2023/07/12 08:41:31;;;;;;;3.95;2.28;;;;;;;19.27;62.51;99886.03;10204321;29;20064;-77
2023/07/12 08:46:39;;;;;;;2.33;2.10;;;;;;;19.17;62.60;99879.06;10213147;29;20048;-77
2023/07/12 08:51:42;;;;;;;2.63;2.35;;;;;;;19.40;61.58;99892.47;10215231;29;20058;-76
2023/07/12 08:56:48;;;;;;;4.28;2.15;;;;;;;19.66;61.36;99897.38;10215760;29;20050;-77
2023/07/12 09:01:57;;;;;;;2.30;1.92;;;;;;;20.49;57.84;99894.03;10220182;29;20052;-77
2023/07/12 09:07:03;;;;;;;2.40;1.48;;;;;;;19.80;59.37;99900.19;10219542;29;20051;-77
2023/07/12 09:12:23;;;;;;;3.55;1.70;;;;;;;19.92;57.65;99886.91;10224093;29;20071;-78
2023/07/12 09:17:29;;;;;;;2.97;1.67;;;;;;;19.65;56.54;99917.47;10220134;29;20063;-76
2023/07/12 09:22:32;;;;;;;2.85;1.90;;;;;;;20.15;56.28;99903.84;10234014;28;20051;-79
2023/07/12 09:27:39;;;;;;;4.18;2.00;;;;;;;20.32;55.52;99921.63;10228492;28;20044;-76
2023/07/12 09:32:43;;;;;;;2.70;2.08;;;;;;;20.24;56.33;99916.28;10200228;29;20143;-76
2023/07/12 09:37:46;;;;;;;3.00;2.55;;;;;;;20.29;56.08;99921.13;10206732;29;20039;-77
2023/07/12 09:42:57;;;;;;;3.88;1.83;;;;;;;20.31;53.87;99928.09;10208535;29;20059;-77
2023/07/12 09:48:06;;;;;;;2.88;1.85;;;;;;;20.46;54.46;99925.28;10203466;29;20051;-76
2023/07/12 09:53:16;;;;;;;5.72;2.08;;;;;;;20.78;53.93;99923.75;10199854;29;20508;-76
2023/07/12 09:58:29;;;;;;;4.45;1.73;;;;;;;21.13;52.73;99921.00;10200219;29;20051;-76
2023/07/12 10:03:37;;;;;;;4.65;1.60;;;;;;;21.13;52.19;99931.09;10207741;29;20050;-76
2023/07/12 10:08:47;;;;;;;6.07;2.28;;;;;;;21.64;50.60;99927.88;10207740;29;20052;-77
2023/07/12 10:13:56;;;;;;;2.97;1.52;;;;;;;20.71;52.59;99955.66;10202684;29;20066;-76
2023/07/12 10:19:04;;;;;;;2.90;1.50;;;;;;;21.55;50.94;99929.09;10202438;29;20040;-77
2023/07/12 10:24:14;;;;;;;5.65;1.77;;;;;;;21.76;50.37;99925.38;10202143;29;20054;-77
2023/07/12 10:29:25;;;;;;;3.05;1.90;;;;;;;22.06;48.86;99923.91;10211408;29;20044;-75
2023/07/12 10:34:32;;;;;;;5.60;2.03;;;;;;;21.71;49.94;99933.34;10219359;29;20049;-76
2023/07/12 10:39:36;;;;;;;4.35;1.67;;;;;;;22.03;48.73;99961.78;10209707;29;20046;-77
2023/07/12 10:44:46;;;;;;;4.43;2.03;;;;;;;21.10;50.65;99965.09;10211688;29;20423;-78
2023/07/12 10:49:56;;;;;;;2.22;1.52;;;;;;;21.25;50.14;99964.09;10243341;28;20059;-78
2023/07/12 10:55:18;;;;;;;6.53;1.83;;;;;;;21.85;49.54;99967.84;10239209;29;20568;-77
2023/07/12 11:00:30;;;;;;;5.67;1.73;;;;;;;21.37;51.37;99955.13;10222376;29;20066;-77
2023/07/12 11:05:42;;;;;;;6.75;1.85;;;;;;;21.54;49.72;99971.97;10215873;29;20945;-77
2023/07/12 11:10:45;;;;;;;7.28;1.98;;;;;;;23.53;47.70;99957.22;10211666;29;20040;-77
2023/07/12 11:16:01;;;;;;;2.28;1.30;;;;;;;23.20;45.83;99958.25;10229544;29;20036;-76
2023/07/12 11:21:06;;;;;;;5.50;1.60;;;;;;;23.19;46.16;99972.97;10221355;29;20048;-77
2023/07/12 11:26:22;;;;;;;2.88;1.13;;;;;;;23.09;45.09;99972.59;10221256;29;20075;-76
2023/07/12 11:31:32;;;;;;;3.40;1.25;;;;;;;23.39;44.02;99958.34;10198616;29;20497;-77
2023/07/12 11:36:36;;;;;;;4.07;1.10;;;;;;;23.06;44.93;99964.78;10205897;29;20051;-76
2023/07/12 11:41:42;;;;;;;2.80;1.55;;;;;;;24.07;42.20;99968.69;10213861;29;20052;-75
2023/07/12 11:46:50;;;;;;;2.42;1.17;;;;;;;23.91;42.90;99963.75;10211226;29;20523;-76
2023/07/12 11:51:56;;;;;;;3.20;1.08;;;;;;;24.05;42.29;99960.69;10203885;29;20155;-77
2023/07/12 11:56:59;;;;;;;3.85;1.27;;;;;;;24.69;42.71;99958.63;10190093;29;20060;-76
2023/07/12 12:02:12;;;;;;;3.30;1.40;;;;;;;24.61;41.19;99967.16;10207329;29;20044;-77
2023/07/12 12:07:19;;;;;;;;;;;;;;;25.07;41.23;99962.25;10212104;29;20040;-77
2023/07/12 12:12:29;;;;;;;2.78;1.45;;;;;;;24.99;40.79;99949.63;10216380;29;19927;-76
2023/07/12 12:17:37;;;;;;;5.90;1.48;;;;;;;24.70;42.04;99967.69;10215112;29;20099;-77
2023/07/12 12:22:42;;;;;;;3.70;1.40;;;;;;;24.29;41.96;99966.38;10200686;29;20415;-76
2023/07/12 12:27:46;;;;;;;6.65;1.60;;;;;;;24.71;42.15;99958.38;10197573;29;20044;-76
2023/07/12 12:32:59;;;;;;;4.50;1.38;;;;;;;24.91;41.69;99961.75;10200983;29;20415;-76
2023/07/12 12:38:12;;;;;;;3.38;1.58;;;;;;;24.94;41.99;99968.72;10210958;29;20046;-77
2023/07/12 12:43:19;;;;;;;2.03;1.10;;;;;;;24.73;40.71;99962.59;10207902;29;20054;-76
2023/07/12 12:48:23;;;;;;;3.70;1.30;;;;;;;23.77;41.48;99969.31;10208125;29;20049;-76
2023/07/12 12:53:46;;;;;;;5.43;1.42;;;;;;;25.27;39.17;99951.00;10207641;29;20066;-77
2023/07/12 12:58:58;;;;;;;3.47;1.40;;;;;;;25.25;39.92;99945.72;10217394;29;20468;-77
2023/07/12 13:04:05;;;;;;;3.28;1.13;;;;;;;24.73;39.84;99945.28;10225662;29;20060;-77
2023/07/12 13:09:20;;;;;;;3.85;1.40;;;;;;;24.90;39.59;99951.00;10212262;29;20040;-77
2023/07/12 13:14:26;;;;;;;6.85;1.05;;;;;;;25.65;38.06;99952.63;10227604;29;20499;-76
2023/07/12 13:19:33;;;;;;;1.60;0.93;;;;;;;25.46;39.44;99944.38;10225668;29;20044;-79
2023/07/12 13:24:37;;;;;;;4.32;1.40;;;;;;;26.36;36.54;99965.47;10205937;29;20526;-76
2023/07/12 13:29:40;;;;;;;2.50;1.40;;;;;;;26.18;37.89;99968.28;10205223;29;20054;-76
2023/07/12 13:34:44;;;;;;;1.48;1.13;;;;;;;25.44;38.35;99970.44;10204548;29;20476;-76
2023/07/12 13:39:50;;;;;;;4.45;1.55;;;;;;;25.50;38.99;99964.00;10196190;29;20668;-75
2023/07/12 13:44:53;;;;;;;5.25;1.35;;;;;;;25.38;38.30;99985.94;10210487;29;20118;-75
2023/07/12 13:50:00;;;;;;;2.35;1.15;;;;;;;24.14;40.34;99971.38;10206041;29;20071;-75
2023/07/12 13:55:04;;;;;;;1.27;0.80;;;;;;;23.35;40.86;99963.44;10205494;29;20708;-75
2023/07/12 14:00:11;;;;;;;2.75;1.10;;;;;;;24.87;38.75;99962.44;10205156;29;20052;-75
2023/07/12 14:05:27;;;;;;;3.95;1.13;;;;;;;25.13;36.64;99955.84;10201047;29;20431;-76
2023/07/12 14:10:33;;;;;;;3.63;1.15;;;;;;;25.74;36.74;99960.28;10202078;29;20044;-75
2023/07/12 14:15:36;;;;;;;7.65;0.90;;;;;;;25.80;36.35;99966.75;10212762;29;20044;-77
2023/07/12 14:20:40;;;;;;;1.52;0.88;;;;;;;24.52;37.63;99983.09;10210235;29;20048;-75
2023/07/12 14:25:43;;;;;;;1.70;0.70;;;;;;;24.47;36.73;99971.13;10211595;29;20068;-77
2023/07/12 14:30:47;;;;;;;2.35;0.75;;;;;;;25.33;35.55;99975.63;10203666;29;20076;-75
2023/07/12 14:36:07;;;;;;;1.67;0.80;;;;;;;26.36;34.98;99968.22;10208364;29;20083;-77
2023/07/12 14:41:18;;;;;;;3.47;1.30;;;;;;;25.71;35.07;99959.94;10220262;28;20063;-75
2023/07/12 14:46:21;;;;;;;2.05;0.75;;;;;;;25.19;35.84;99966.72;10201223;29;20505;-77
2023/07/12 14:51:25;;;;;;;5.30;1.52;;;;;;;24.73;36.79;99970.81;10205538;29;20047;-76
2023/07/12 14:56:28;;;;;;;1.77;0.80;;;;;;;24.76;36.30;99956.63;10208162;29;20051;-76
2023/07/12 15:01:31;;;;;;;4.40;1.15;;;;;;;26.05;34.16;99950.06;10199900;28;20039;-77
2023/07/12 15:06:35;;;;;;;2.53;0.90;;;;;;;25.97;34.53;99936.66;10204190;29;20095;-75
2023/07/12 15:11:38;;;;;;;1.58;0.88;;;;;;;25.75;35.98;99944.63;10194040;29;20075;-77
2023/07/12 15:16:43;;;;;;;2.58;0.82;;;;;;;25.05;35.95;99940.50;10191619;29;20055;-77
2023/07/12 15:21:47;;;;;;;4.25;1.23;;;;;;;26.19;33.50;99939.66;10196323;29;20127;-76
2023/07/12 15:26:51;;;;;;;1.65;0.85;;;;;;;25.74;34.99;99935.53;10199658;29;20507;-75
2023/07/12 15:31:54;;;;;;;2.50;1.20;;;;;;;25.08;35.71;99945.53;10200164;29;20080;-76
2023/07/12 15:36:58;;;;;;;2.53;1.30;;;;;;;23.44;38.77;99966.75;10206527;29;20079;-76
2023/07/12 15:42:01;;;;;;;1.75;1.05;;;;;;;24.48;37.31;99931.59;10198036;29;20075;-76
2023/07/12 15:47:04;;;;;;;1.42;1.02;;;;;;;25.85;35.01;99942.97;10197829;29;20075;-76
2023/07/12 15:52:16;;;;;;;1.85;1.00;;;;;;;26.03;34.62;99933.81;10209595;29;20044;-76
2023/07/12 15:57:19;;;;;;;3.67;1.17;;;;;;;26.02;35.04;99936.78;10200447;29;20126;-76
2023/07/12 16:02:26;;;;;;;2.10;0.98;;;;;;;25.73;35.97;99933.03;10201060;29;20302;-76
2023/07/12 16:07:31;;;;;;;4.40;1.42;;;;;;;25.31;36.60;99939.28;10197131;29;20095;-76
2023/07/12 16:12:34;;;;;;;6.80;1.40;;;;;;;24.69;37.06;99933.09;10203000;29;20048;-77
2023/07/12 16:17:37;;;;;;;3.00;1.00;;;;;;;25.38;35.46;99926.31;10211888;29;20040;-78
2023/07/12 16:22:42;;;;;;;3.80;1.08;;;;;;;26.42;34.69;99920.44;10219330;29;20451;-77
2023/07/12 16:27:47;;;;;;;2.15;1.00;;;;;;;24.26;36.61;99931.16;10218958;29;20985;-76
2023/07/12 16:32:50;;;;;;;4.30;1.25;;;;;;;23.65;38.45;99941.75;10213578;29;20031;-77
2023/07/12 16:37:54;;;;;;;3.58;1.33;;;;;;;23.37;39.34;99933.91;10224314;28;20055;-77
2023/07/12 16:42:57;;;;;;;2.42;0.90;;;;;;;25.77;36.07;99924.06;10207683;29;20055;-77
2023/07/12 16:48:01;;;;;;;2.80;1.10;;;;;;;29.28;31.31;99916.31;10216480;29;20571;-77
2023/07/12 16:53:14;;;;;;;5.07;1.40;;;;;;;25.28;36.06;99928.75;10217562;29;20076;-77
2023/07/12 16:58:21;;;;;;;2.28;1.30;;;;;;;24.05;38.20;99943.38;10209348;29;20111;-77
2023/07/12 17:03:25;;;;;;;4.35;1.30;;;;;;;23.92;38.71;99941.59;10204381;29;20240;-76
2023/07/12 17:08:30;;;;;;;4.00;1.40;;;;;;;23.56;40.01;99951.31;10209951;29;20085;-77
2023/07/12 17:13:33;;;;;;;3.83;1.63;;;;;;;23.80;41.03;99965.28;10227005;28;20060;-76
2023/07/12 17:18:36;;;;;;;6.22;1.85;;;;;;;22.81;44.02;99961.91;10212552;29;20043;-77
2023/07/12 17:23:42;;;;;;;2.47;1.80;;;;;;;22.80;44.10;99968.47;10212232;29;20063;-77
2023/07/12 17:28:46;;;;;;;5.30;2.13;;;;;;;22.64;44.74;99979.88;10207976;29;20463;-77
2023/07/12 17:33:49;;;;;;;4.60;1.92;;;;;;;22.24;45.99;99978.00;10216017;29;20500;-76
2023/07/12 17:38:55;;;;;;;4.32;2.10;;;;;;;22.50;45.61;99981.78;10211704;29;20397;-77
2023/07/12 17:44:00;;;;;;;8.65;2.03;;;;;;;24.66;43.16;99971.97;10210221;28;20048;-77
2023/07/12 17:49:03;;;;;;;3.38;1.95;;;;;;;25.56;40.30;99966.66;10193731;29;20538;-77
2023/07/12 17:54:11;;;;;;;5.20;1.90;;;;;;;23.47;44.49;99971.78;10194642;29;20051;-76
2023/07/12 17:59:14;;;;;;;4.22;1.90;;;;;;;23.14;44.37;99981.00;10205185;29;20067;-76
2023/07/12 18:04:19;;;;;;;4.28;1.55;;;;;;;22.73;44.40;99984.06;10198913;29;20074;-76
2023/07/12 18:09:24;;;;;;;4.57;1.73;;;;;;;22.46;43.30;99999.66;10206459;29;20433;-76
2023/07/12 18:14:27;;;;;;;4.10;1.63;;;;;;;22.06;44.03;99995.03;10210616;29;20139;-76
2023/07/12 18:19:30;;;;;;;4.25;1.83;;;;;;;22.69;42.68;100007.44;10203587;29;20051;-76
2023/07/12 18:24:34;;;;;;;6.38;1.70;;;;;;;23.06;42.78;100015.97;10205908;29;20051;-76
2023/07/12 18:29:37;;;;;;;6.30;2.08;;;;;;;22.11;44.24;100008.91;10206609;29;20051;-76
2023/07/12 18:34:40;;;;;;;3.97;1.88;;;;;;;21.94;44.85;100013.09;10204978;29;20055;-76
2023/07/12 18:39:47;;;;;;;3.00;2.17;;;;;;;21.71;45.72;100020.78;10211986;29;20428;-77
2023/07/12 18:44:51;;;;;;;5.97;2.00;;;;;;;21.09;46.83;100017.19;10204209;29;20474;-76
2023/07/12 18:49:55;;;;;;;4.88;2.42;;;;;;;20.77;47.76;100022.22;10200290;29;20504;-77
2023/07/12 18:54:59;;;;;;;6.18;2.17;;;;;;;21.04;47.50;100027.88;10212592;29;20044;-77
2023/07/12 19:00:04;;;;;;;3.90;1.88;;;;;;;21.34;47.18;100017.53;10207842;29;20432;-76
2023/07/12 19:05:18;;;;;;;5.00;1.70;;;;;;;21.02;47.10;100020.69;10209811;29;20071;-77
2023/07/12 19:10:23;;;;;;;5.07;2.00;;;;;;;20.62;48.36;100024.22;10212298;29;20455;-77
2023/07/12 19:15:28;;;;;;;5.80;2.15;;;;;;;20.66;47.74;100020.06;10213367;29;20115;-77
2023/07/12 19:20:31;;;;;;;8.55;2.05;;;;;;;20.78;47.77;100027.47;10216510;29;20107;-76
2023/07/12 19:25:35;;;;;;;4.97;1.95;;;;;;;20.92;47.24;100033.03;10208955;29;20039;-77
2023/07/12 19:30:38;;;;;;;6.65;1.98;;;;;;;21.38;46.79;100041.47;10209728;29;20071;-77
2023/07/12 19:35:41;;;;;;;5.05;1.75;;;;;;;21.16;47.24;100043.47;10212075;29;20554;-77
2023/07/12 19:40:46;;;;;;;4.05;2.08;;;;;;;21.34;47.37;100044.84;10212574;29;20503;-76
2023/07/12 19:45:49;;;;;;;2.90;1.75;;;;;;;21.21;48.31;100053.81;10215591;29;20989;-76
2023/07/12 19:50:52;;;;;;;4.35;2.08;;;;;;;21.31;48.81;100061.63;10215032;29;20074;-76
2023/07/12 19:55:57;;;;;;;4.90;1.98;;;;;;;21.36;49.63;100059.13;10214057;29;20406;-77
2023/07/12 20:00:59;;;;;;;6.20;2.30;;;;;;;21.35;50.28;100055.56;10218827;29;20415;-76
2023/07/12 20:06:06;;;;;;;4.50;2.00;;;;;;;21.27;51.19;100054.88;10236542;29;20066;-76
2023/07/12 20:11:15;;;;;;;4.00;2.25;;;;;;;21.15;51.74;100060.09;10223510;29;20040;-77
2023/07/12 20:16:21;;;;;;;4.53;2.33;;;;;;;21.06;52.61;100073.03;10219566;29;20052;-77
2023/07/12 20:21:25;;;;;;;5.28;2.60;;;;;;;20.88;52.78;100075.44;10227564;29;20098;-76
2023/07/12 20:26:29;;;;;;;6.47;2.33;;;;;;;20.58;53.89;100083.81;10206791;29;20071;-76
2023/07/12 20:31:32;;;;;;;8.00;2.35;;;;;;;20.41;54.76;100085.13;10216282;29;20046;-77
2023/07/12 20:36:35;;;;;;;7.38;2.47;;;;;;;20.42;55.61;100081.34;10220979;29;20138;-76
2023/07/12 20:41:40;;;;;;;4.97;2.38;;;;;;;20.29;56.28;100077.41;10215065;29;20511;-76
2023/07/12 20:46:43;;;;;;;6.78;2.28;;;;;;;20.34;55.93;100091.34;10236026;28;20052;-75
2023/07/12 20:51:46;;;;;;;2.42;2.00;;;;;;;20.49;56.02;100091.28;10215538;29;20529;-75
2023/07/12 20:56:50;;;;;;;5.95;2.33;;;;;;;20.53;56.11;100089.84;10210128;29;20051;-76
2023/07/12 21:01:53;;;;;;;6.00;2.92;;;;;;;20.50;54.48;100098.41;10213299;29;20047;-76
2023/07/12 21:06:56;;;;;;;3.15;2.33;;;;;;;20.26;54.16;100096.91;10210633;29;20503;-76
2023/07/12 21:12:01;;;;;;;6.93;2.50;;;;;;;20.01;54.12;100095.59;10221308;28;20147;-76
2023/07/12 21:17:04;;;;;;;5.57;2.15;;;;;;;19.93;54.28;100101.16;10215997;29;20067;-75
2023/07/12 21:22:07;;;;;;;5.15;2.10;;;;;;;19.80;53.86;100104.56;10210896;29;20048;-77
2023/07/12 21:27:11;;;;;;;5.68;2.10;;;;;;;19.72;53.60;100107.41;10210508;29;20055;-77
2023/07/12 21:32:14;;;;;;;4.35;2.40;;;;;;;19.14;54.60;100113.56;10207980;29;20091;-76
2023/07/12 21:37:18;;;;;;;4.03;2.10;;;;;;;18.83;54.60;100115.56;10201162;29;20166;-76
2023/07/12 21:42:22;;;;;;;4.80;2.00;;;;;;;18.92;54.57;100114.44;10201252;29;20036;-76
2023/07/12 21:47:25;;;;;;;5.78;2.35;;;;;;;18.83;54.70;100118.28;10206886;29;20673;-77
2023/07/12 21:52:28;;;;;;;4.75;2.20;;;;;;;18.79;54.59;100110.50;10210008;29;20075;-76
2023/07/12 21:57:32;;;;;;;4.35;2.00;;;;;;;19.02;53.88;100120.47;10212989;29;20426;-76
2023/07/12 22:02:35;;;;;;;3.92;1.88;;;;;;;18.65;54.16;100129.47;10203863;29;20513;-77
2023/07/12 22:07:39;;;;;;;6.07;2.03;;;;;;;18.66;54.21;100125.72;10195050;29;20048;-76
2023/07/12 22:12:43;;;;;;;5.38;2.10;;;;;;;18.67;54.47;100117.38;10198823;29;20079;-76
2023/07/12 22:17:46;;;;;;;3.08;1.77;;;;;;;18.58;54.58;100115.75;10201166;29;20092;-76
2023/07/12 22:22:50;;;;;;;3.88;2.13;;;;;;;18.22;55.46;100124.53;10211299;29;20062;-75
2023/07/12 22:27:55;;;;;;;4.53;2.10;;;;;;;18.30;55.33;100129.91;10233754;29;20048;-76
2023/07/12 22:32:58;;;;;;;3.83;2.30;;;;;;;18.24;55.70;100136.09;10220687;29;20048;-76
2023/07/12 22:38:03;;;;;;;7.82;2.25;;;;;;;18.22;55.62;100137.28;10221280;29;20080;-76
2023/07/12 22:43:07;;;;;;;3.17;2.22;;;;;;;17.83;56.77;100144.44;10213162;29;20115;-76
2023/07/12 22:48:10;;;;;;;5.68;2.25;;;;;;;17.89;56.71;100134.75;10213771;29;20544;-76
2023/07/12 22:53:13;;;;;;;6.00;2.00;;;;;;;17.57;57.59;100147.44;10202566;29;20135;-76
2023/07/12 22:58:18;;;;;;;3.63;2.00;;;;;;;17.82;57.21;100148.16;10215985;29;20058;-75
2023/07/12 23:03:21;;;;;;;2.97;1.85;;;;;;;17.69;57.40;100147.91;10214895;28;20039;-76
2023/07/12 23:08:25;;;;;;;4.70;2.30;;;;;;;17.88;56.95;100152.91;10210262;29;20431;-76
2023/07/12 23:13:30;;;;;;;7.45;2.20;;;;;;;17.88;57.20;100152.91;10213768;29;20063;-76
2023/07/12 23:18:34;;;;;;;4.30;2.20;;;;;;;17.64;57.96;100163.88;10202952;29;20050;-76
2023/07/12 23:23:37;;;;;;;5.13;2.30;;;;;;;17.50;58.13;100154.59;10216346;29;20040;-76
2023/07/12 23:28:44;;;;;;;4.93;2.30;;;;;;;17.48;58.21;100162.91;10215490;29;20052;-76
2023/07/12 23:33:47;;;;;;;6.10;2.53;;;;;;;16.99;59.97;100167.59;10212945;29;20488;-76
2023/07/12 23:38:51;;;;;;;5.32;2.40;;;;;;;16.83;60.14;100168.44;10206544;29;20052;-75
2023/07/12 23:43:56;;;;;;;5.00;2.45;;;;;;;16.92;59.99;100171.97;10192406;29;20063;-76
2023/07/12 23:48:59;;;;;;;3.80;2.03;;;;;;;17.11;59.24;100170.78;10206788;29;20052;-76
2023/07/12 23:54:05;;;;;;;3.63;2.38;;;;;;;17.06;59.76;100174.03;10207179;29;20048;-76
2023/07/12 23:59:09;;;;;;;6.22;2.53;;;;;;;16.82;60.57;100183.03;10205190;29;20410;-76
